Time;durP1;ratioP1;P1;durP2;ratioP2;P2;SDS_P1;SDS_P2;PMS_P1;PMS_P2;Temp;Humidity;BMP_temperature;BMP_pressure;BME280_temperature;BME280_humidity;BME280_pressure;Samples;Min_cycle;Max_cycle;Signal;HPM_P1;HPM_P2
2020/12/02 00:00:43;;;;;;;32.10;20.02;;;;;;;9.37;50.71;101738.38;5005681;28;98287;-72
2020/12/02 00:03:14;;;;;;;31.70;19.67;;;;;;;9.36;50.34;101744.41;4998359;28;97325;-72
2020/12/02 00:05:44;;;;;;;33.55;19.75;;;;;;;9.35;50.14;101745.19;5004634;28;97443;-72
2020/12/02 00:08:17;;;;;;;36.75;21.70;;;;;;;9.31;50.68;101749.31;5008018;28;97800;-72
2020/12/02 00:10:45;;;;;;;32.65;20.85;;;;;;;9.28;50.26;101750.81;5001102;28;98024;-72
2020/12/02 00:13:15;;;;;;;38.50;22.23;;;;;;;9.24;50.51;101747.03;5001688;28;97375;-71
2020/12/02 00:15:43;;;;;;;37.13;21.63;;;;;;;9.24;50.23;101747.03;5002906;28;96928;-71
2020/12/02 00:18:10;;;;;;;48.55;27.33;;;;;;;9.21;50.74;101742.47;5007498;28;98490;-71
2020/12/02 00:20:37;;;;;;;53.65;28.38;;;;;;;9.21;50.52;101749.44;5004552;28;99081;-72
2020/12/02 00:23:05;;;;;;;43.60;23.48;;;;;;;9.18;50.45;101751.81;5003889;28;96710;-71
2020/12/02 00:25:32;;;;;;;42.08;23.40;;;;;;;9.17;50.31;101747.41;4989785;28;97394;-71
2020/12/02 00:28:01;;;;;;;38.72;21.80;;;;;;;9.14;50.62;101745.44;4996965;28;99051;-71
2020/12/02 00:30:33;;;;;;;38.45;22.15;;;;;;;9.13;50.25;101750.59;5005155;28;99425;-71
2020/12/02 00:33:08;;;;;;;39.15;22.08;;;;;;;9.11;50.46;101749.56;5007081;28;97267;-72
2020/12/02 00:35:36;;;;;;;36.53;21.08;;;;;;;9.10;50.81;101745.13;5007865;28;96748;-71
2020/12/02 00:38:07;;;;;;;40.13;23.33;;;;;;;9.08;50.39;101744.09;5010736;28;97689;-71
2020/12/02 00:40:54;;;;;;;40.80;22.45;;;;;;;9.05;50.33;101749.13;4999765;28;99218;-72
2020/12/02 00:43:23;;;;;;;40.33;22.27;;;;;;;9.02;50.66;101754.13;5009438;28;97686;-71
2020/12/02 00:45:54;;;;;;;38.78;23.05;;;;;;;8.99;50.48;101748.66;5005697;28;97091;-72
2020/12/02 00:48:23;;;;;;;39.17;22.92;;;;;;;8.98;50.72;101745.13;4998230;28;101036;-72
2020/12/02 00:50:53;;;;;;;37.85;22.00;;;;;;;8.98;50.85;101750.34;4994208;28;97820;-72
2020/12/02 00:53:22;;;;;;;40.10;23.33;;;;;;;8.96;50.57;101741.47;5004497;28;97195;-71
2020/12/02 00:55:51;;;;;;;36.13;22.60;;;;;;;8.94;50.74;101750.91;5002562;28;97334;-71
2020/12/02 00:58:32;;;;;;;37.33;21.58;;;;;;;8.90;50.60;101750.59;5002228;28;99220;-71
2020/12/02 01:01:03;;;;;;;39.80;22.35;;;;;;;8.88;50.44;101760.03;5001026;28;97978;-72
2020/12/02 01:03:31;;;;;;;33.80;20.55;;;;;;;8.85;50.46;101759.81;5006943;28;97661;-71
2020/12/02 01:06:00;;;;;;;40.72;22.17;;;;;;;8.81;50.54;101756.03;5007771;28;97214;-71
2020/12/02 01:08:30;;;;;;;42.40;23.05;;;;;;;8.74;50.90;101765.97;5002319;28;98127;-71
2020/12/02 01:11:05;;;;;;;37.78;21.73;;;;;;;8.68;50.61;101763.78;5021264;28;101004;-72
2020/12/02 01:13:33;;;;;;;45.88;24.30;;;;;;;8.64;50.99;101758.19;4991910;28;96908;-71
2020/12/02 01:16:05;;;;;;;36.05;21.77;;;;;;;8.60;50.84;101767.50;4998460;28;96902;-71
2020/12/02 01:18:33;;;;;;;38.88;23.08;;;;;;;8.55;50.77;101770.56;5002094;28;97251;-71
2020/12/02 01:21:08;;;;;;;37.60;22.38;;;;;;;8.51;50.78;101772.03;4993826;28;97772;-71
2020/12/02 01:23:36;;;;;;;35.40;21.38;;;;;;;8.49;50.85;101767.47;4995796;28;97967;-71
2020/12/02 01:26:04;;;;;;;38.38;23.90;;;;;;;8.43;50.96;101764.41;4997532;28;96801;-71
2020/12/02 01:28:32;;;;;;;39.28;21.02;;;;;;;8.36;50.98;101762.09;5004739;28;97887;-71
2020/12/02 01:31:00;;;;;;;40.17;23.20;;;;;;;8.31;51.09;101766.06;5006462;28;99171;-71
2020/12/02 01:33:47;;;;;;;38.38;23.48;;;;;;;8.26;51.10;101772.66;5005995;28;96739;-71
2020/12/02 01:36:15;;;;;;;38.75;22.63;;;;;;;8.20;50.95;101767.81;5004503;28;96890;-71
2020/12/02 01:38:43;;;;;;;36.55;21.27;;;;;;;8.17;50.97;101776.31;5002534;28;97855;-71
2020/12/02 01:41:12;;;;;;;39.85;22.38;;;;;;;8.13;51.11;101774.28;5007811;28;98999;-71
2020/12/02 01:43:39;;;;;;;38.28;22.45;;;;;;;8.09;51.21;101776.53;5005541;28;96720;-71
2020/12/02 01:46:16;;;;;;;36.75;21.05;;;;;;;8.02;51.10;101776.84;4995046;28;97105;-72
2020/12/02 01:49:04;;;;;;;41.05;22.85;;;;;;;7.95;50.64;101777.16;5002993;28;97870;-71
2020/12/02 01:51:57;;;;;;;34.92;20.45;;;;;;;7.89;50.96;101774.03;5000892;28;99408;-71
2020/12/02 01:54:46;;;;;;;35.28;20.75;;;;;;;7.85;51.38;101772.88;4997775;28;96695;-71
2020/12/02 01:57:17;;;;;;;36.28;21.63;;;;;;;7.81;51.40;101765.56;5005648;28;97135;-71
2020/12/02 01:59:50;;;;;;;39.15;22.45;;;;;;;7.76;51.50;101760.78;4996204;28;97870;-71
2020/12/02 02:02:26;;;;;;;38.97;22.50;;;;;;;7.74;51.42;101762.34;5008366;28;99041;-71
2020/12/02 02:05:01;;;;;;;44.78;23.08;;;;;;;7.72;51.18;101769.19;4985520;28;96855;-71
2020/12/02 02:07:29;;;;;;;35.65;20.73;;;;;;;7.70;51.46;101774.25;5003179;28;97560;-71
2020/12/02 02:10:00;;;;;;;45.13;22.80;;;;;;;7.65;51.27;101767.75;5006997;28;99273;-71
2020/12/02 02:12:55;;;;;;;39.53;22.67;;;;;;;7.63;51.06;101769.34;5005014;28;99076;-71
2020/12/02 02:15:36;;;;;;;36.05;20.88;;;;;;;7.63;50.98;101771.97;4991680;28;96612;-71
2020/12/02 02:18:07;;;;;;;35.10;20.75;;;;;;;7.64;51.16;101765.03;4998211;28;96993;-71
2020/12/02 02:20:38;;;;;;;37.47;21.75;;;;;;;7.64;51.58;101765.03;4996938;28;99015;-71
2020/12/02 02:23:07;;;;;;;37.25;20.88;;;;;;;7.64;51.42;101771.19;4997392;28;98161;-72
2020/12/02 02:25:35;;;;;;;39.53;21.77;;;;;;;7.64;51.02;101768.56;4993328;28;96889;-71
2020/12/02 02:28:04;;;;;;;35.75;20.65;;;;;;;7.65;51.15;101769.47;4994669;28;96862;-71
2020/12/02 02:30:32;;;;;;;37.22;21.63;;;;;;;7.65;51.36;101759.91;4995598;28;97843;-71
2020/12/02 02:32:59;;;;;;;38.00;21.70;;;;;;;7.65;51.53;101764.22;5000527;28;97529;-72
2020/12/02 02:35:29;;;;;;;37.20;20.90;;;;;;;7.66;51.39;101764.38;4995590;28;97502;-71
2020/12/02 02:37:57;;;;;;;35.35;21.92;;;;;;;7.68;51.47;101768.00;4995099;28;96852;-72
2020/12/02 02:40:42;;;;;;;36.38;21.40;;;;;;;7.70;51.29;101765.53;4997014;28;98349;-71
2020/12/02 02:43:10;;;;;;;37.38;21.25;;;;;;;7.72;51.22;101771.81;4998564;28;97788;-71
2020/12/02 02:45:38;;;;;;;40.58;23.80;;;;;;;7.73;51.36;101771.00;4996443;28;96878;-72
2020/12/02 02:48:06;;;;;;;36.38;21.52;;;;;;;7.75;51.29;101770.34;5005954;28;96898;-72
2020/12/02 02:50:35;;;;;;;37.60;20.92;;;;;;;7.74;51.15;101763.28;5005354;28;99006;-72
2020/12/02 02:53:14;;;;;;;36.70;21.23;;;;;;;7.72;51.31;101757.00;5002895;28;97803;-72
2020/12/02 02:55:43;;;;;;;41.60;22.27;;;;;;;7.74;50.98;101757.13;5007943;28;97721;-72
2020/12/02 02:58:11;;;;;;;40.90;22.55;;;;;;;7.71;50.86;101757.81;5001524;28;97287;-72
2020/12/02 03:00:40;;;;;;;38.72;22.38;;;;;;;7.70;51.18;101760.31;5002311;28;97823;-71
2020/12/02 03:03:10;;;;;;;39.40;22.67;;;;;;;7.67;51.59;101758.34;4999999;28;97975;-71
2020/12/02 03:05:37;;;;;;;40.78;22.48;;;;;;;7.65;51.53;101752.06;5001937;28;97247;-71
2020/12/02 03:08:07;;;;;;;39.53;22.30;;;;;;;7.64;51.32;101750.25;5008098;28;97537;-71
2020/12/02 03:10:38;;;;;;;39.28;21.92;;;;;;;7.63;50.80;101758.88;4997154;28;98254;-71
2020/12/02 03:13:13;;;;;;;39.03;22.85;;;;;;;7.60;51.27;101753.41;5001122;28;97822;-71
2020/12/02 03:15:42;;;;;;;37.88;21.88;;;;;;;7.58;51.16;101752.38;5004734;28;97214;-71
2020/12/02 03:18:09;;;;;;;35.70;21.10;;;;;;;7.55;51.50;101757.38;5005242;28;96791;-71
2020/12/02 03:20:41;;;;;;;33.13;20.85;;;;;;;7.53;51.62;101744.97;5001499;28;98191;-71
2020/12/02 03:23:10;;;;;;;38.20;22.13;;;;;;;7.50;51.29;101744.72;5004534;28;98193;-71
2020/12/02 03:25:38;;;;;;;38.25;23.15;;;;;;;7.45;51.19;101741.72;4997023;28;97290;-72
2020/12/02 03:28:06;;;;;;;37.97;22.30;;;;;;;7.42;51.64;101746.72;5003766;28;97179;-71
2020/12/02 03:30:34;;;;;;;37.40;22.20;;;;;;;7.40;51.32;101740.44;4996912;28;100391;-71
2020/12/02 03:33:02;;;;;;;39.03;22.45;;;;;;;7.37;51.29;101745.44;5002266;28;98103;-71
2020/12/02 03:35:30;;;;;;;34.30;21.00;;;;;;;7.35;51.48;101746.09;5007281;28;97538;-71
2020/12/02 03:37:57;;;;;;;42.08;22.52;;;;;;;7.32;51.82;101741.50;5001982;28;97243;-71
2020/12/02 03:40:25;;;;;;;41.47;21.88;;;;;;;7.28;51.22;101742.03;5007623;28;99109;-71
2020/12/02 03:42:52;;;;;;;37.72;22.45;;;;;;;7.26;51.64;101743.66;5000488;28;97357;-71
2020/12/02 03:45:20;;;;;;;37.75;22.02;;;;;;;7.22;51.61;101745.88;5006366;28;96589;-71
2020/12/02 03:47:47;;;;;;;37.90;22.52;;;;;;;7.21;51.86;101750.19;5007161;28;97048;-71
2020/12/02 03:50:16;;;;;;;38.13;21.90;;;;;;;7.19;51.77;101746.53;4994258;28;99058;-71
2020/12/02 03:52:43;;;;;;;35.60;21.23;;;;;;;7.16;51.60;101741.06;4996944;28;97894;-71
2020/12/02 03:55:11;;;;;;;40.38;22.15;;;;;;;7.13;51.81;101743.44;5007030;28;97502;-72
2020/12/02 03:57:38;;;;;;;36.90;20.98;;;;;;;7.10;51.48;101741.47;5005381;28;97073;-71
2020/12/02 04:00:09;;;;;;;38.78;22.77;;;;;;;7.05;51.94;101732.34;5000975;28;99267;-70
2020/12/02 04:02:36;;;;;;;41.83;23.58;;;;;;;7.03;51.56;101738.22;5004550;28;99048;-71
2020/12/02 04:05:05;;;;;;;37.80;22.15;;;;;;;7.01;51.88;101739.78;5005571;28;97255;-71
2020/12/02 04:07:34;;;;;;;41.05;23.67;;;;;;;6.98;51.52;101739.56;5000747;28;97403;-69
2020/12/02 04:10:01;;;;;;;42.22;25.23;;;;;;;6.97;51.65;101740.38;5008538;28;98963;-72
2020/12/02 04:12:29;;;;;;;42.58;23.90;;;;;;;6.96;51.27;101741.13;5005804;28;99087;-72
2020/12/02 04:14:56;;;;;;;36.95;22.15;;;;;;;6.93;51.48;101738.28;5002590;28;97179;-72
2020/12/02 04:17:23;;;;;;;40.65;22.67;;;;;;;6.89;51.62;101734.50;5004662;28;97185;-73
2020/12/02 04:19:51;;;;;;;40.25;22.50;;;;;;;6.85;51.55;101732.41;5010488;28;96946;-72
2020/12/02 04:22:19;;;;;;;38.38;23.08;;;;;;;6.80;52.12;101738.97;4993971;28;97947;-72
2020/12/02 04:24:47;;;;;;;41.75;23.05;;;;;;;6.78;51.50;101737.91;5005188;28;97150;-72
2020/12/02 04:27:15;;;;;;;43.22;23.58;;;;;;;6.74;51.43;101734.91;5007485;28;97085;-72
2020/12/02 04:29:43;;;;;;;39.38;21.40;;;;;;;6.70;52.17;101731.13;5006629;28;97884;-73
2020/12/02 04:32:29;;;;;;;44.42;23.75;;;;;;;6.67;51.36;101729.97;5003140;28;99188;-72
2020/12/02 04:35:01;;;;;;;41.88;22.48;;;;;;;6.65;51.85;101737.69;5006563;28;96840;-71
2020/12/02 04:37:29;;;;;;;38.70;23.20;;;;;;;6.62;51.77;101726.06;5011745;28;97085;-72
2020/12/02 04:39:58;;;;;;;42.55;22.90;;;;;;;6.58;51.43;101724.91;4992431;28;99816;-72
2020/12/02 04:42:28;;;;;;;43.60;23.30;;;;;;;6.58;52.21;101723.97;5005787;28;98079;-72
2020/12/02 04:44:56;;;;;;;42.20;23.55;;;;;;;6.55;52.29;101724.63;5008090;28;97604;-71
2020/12/02 04:47:31;;;;;;;40.80;22.52;;;;;;;6.50;52.09;101725.03;5003778;28;96687;-71
2020/12/02 04:49:59;;;;;;;40.70;22.83;;;;;;;6.50;51.90;101733.78;5008775;28;101251;-71
2020/12/02 04:52:27;;;;;;;42.55;23.23;;;;;;;6.47;52.07;101727.38;5007717;28;99545;-71
2020/12/02 04:54:55;;;;;;;43.00;23.05;;;;;;;6.42;51.57;101731.31;5008551;28;97257;-71
2020/12/02 04:57:23;;;;;;;38.40;22.08;;;;;;;6.41;51.62;101730.38;5003483;28;97691;-71
2020/12/02 04:59:51;;;;;;;43.72;23.75;;;;;;;6.39;52.31;101725.81;5006765;28;99409;-71
2020/12/02 05:02:26;;;;;;;40.63;23.48;;;;;;;6.35;51.92;101728.97;5003780;28;99245;-72
2020/12/02 05:04:55;;;;;;;40.65;23.02;;;;;;;6.33;51.97;101736.69;5005723;28;97189;-71
2020/12/02 05:07:25;;;;;;;39.22;22.80;;;;;;;6.30;52.08;101739.00;4993730;28;96574;-72
2020/12/02 05:09:58;;;;;;;39.40;22.23;;;;;;;6.28;51.89;101731.84;5001358;28;99364;-72
2020/12/02 05:12:29;;;;;;;41.53;22.73;;;;;;;6.25;52.39;101721.13;4998569;28;99106;-72
2020/12/02 05:15:10;;;;;;;40.20;23.48;;;;;;;6.21;51.75;101730.41;5004502;28;97506;-71
2020/12/02 05:18:05;;;;;;;40.20;23.60;;;;;;;6.14;51.85;101728.97;5004133;28;97302;-71
2020/12/02 05:20:34;;;;;;;42.95;22.90;;;;;;;6.15;51.86;101728.19;4996954;28;97879;-72
2020/12/02 05:23:11;;;;;;;39.38;23.15;;;;;;;6.11;51.52;101723.47;5005556;28;98432;-72
2020/12/02 05:25:38;;;;;;;50.35;25.45;;;;;;;6.10;52.16;101728.56;5000103;28;96826;-72
2020/12/02 05:28:28;;;;;;;46.17;25.17;;;;;;;6.05;51.96;101727.28;5000095;28;97307;-71
2020/12/02 05:31:05;;;;;;;44.88;24.27;;;;;;;6.01;52.17;101720.88;5003752;28;99623;-72
2020/12/02 05:33:36;;;;;;;43.50;24.23;;;;;;;6.00;51.77;101721.66;4999005;28;97881;-72
2020/12/02 05:36:06;;;;;;;45.38;24.40;;;;;;;5.98;51.89;101723.25;5010309;28;97153;-71
2020/12/02 05:38:37;;;;;;;44.40;25.88;;;;;;;5.97;52.03;101717.88;5009484;28;97333;-72
2020/12/02 05:41:06;;;;;;;46.33;24.15;;;;;;;5.95;52.55;101724.63;5001959;28;99002;-71
2020/12/02 05:43:45;;;;;;;48.17;26.10;;;;;;;5.90;52.31;101721.66;5004776;28;98369;-72
2020/12/02 05:46:18;;;;;;;43.53;23.83;;;;;;;5.86;52.02;101716.94;4994812;28;97298;-74
2020/12/02 05:48:45;;;;;;;49.83;25.88;;;;;;;5.86;52.52;101711.72;5011458;28;96860;-74
2020/12/02 05:51:17;;;;;;;45.08;24.48;;;;;;;5.86;51.99;101711.72;4993879;28;99345;-74
2020/12/02 05:53:49;;;;;;;45.90;25.65;;;;;;;5.84;52.75;101715.91;4989124;28;97836;-74
2020/12/02 05:56:17;;;;;;;40.88;23.17;;;;;;;5.83;52.26;101711.47;4991557;28;97197;-73
2020/12/02 05:58:46;;;;;;;45.47;24.83;;;;;;;5.80;52.30;101705.94;4988124;28;97492;-74
2020/12/02 06:01:17;;;;;;;38.20;23.55;;;;;;;5.79;52.35;101709.34;5002861;28;97885;-74
2020/12/02 06:03:48;;;;;;;41.72;22.92;;;;;;;5.77;52.57;101702.16;4996531;28;100335;-75
2020/12/02 06:06:15;;;;;;;44.83;24.75;;;;;;;5.78;52.46;101707.53;4997888;28;97388;-74
2020/12/02 06:08:45;;;;;;;43.03;24.02;;;;;;;5.75;52.58;101699.44;5000777;28;96697;-74
2020/12/02 06:11:34;;;;;;;44.17;24.48;;;;;;;5.69;52.61;101698.88;4998371;28;99343;-73
2020/12/02 06:14:07;;;;;;;42.88;24.05;;;;;;;5.71;52.34;101707.75;4998534;28;97172;-74
2020/12/02 06:16:38;;;;;;;47.83;24.67;;;;;;;5.70;52.10;101705.94;5002683;28;97239;-74
2020/12/02 06:19:39;;;;;;;45.75;25.67;;;;;;;5.63;52.06;101700.97;4998877;28;97279;-73
2020/12/02 06:22:08;;;;;;;40.67;24.20;;;;;;;5.67;52.40;101708.28;4953028;28;99146;-74
2020/12/02 06:24:39;;;;;;;41.00;22.75;;;;;;;5.64;52.67;101700.19;5000491;28;98203;-74
2020/12/02 06:27:42;;;;;;;43.53;24.80;;;;;;;5.62;52.47;101700.84;4996038;28;97223;-73
2020/12/02 06:30:21;;;;;;;46.00;23.98;;;;;;;5.61;52.84;101694.72;4992942;28;97460;-73
2020/12/02 06:33:15;;;;;;;46.42;25.60;;;;;;;5.60;52.05;101692.00;4988548;28;97901;-73
2020/12/02 06:35:42;;;;;;;45.42;23.00;;;;;;;5.62;52.49;101693.94;4983378;28;99281;-74
2020/12/02 06:38:29;;;;;;;45.67;24.35;;;;;;;5.58;51.89;101689.25;4987378;28;97172;-74
2020/12/02 06:41:29;;;;;;;65.32;34.33;;;;;;;5.57;52.29;101703.03;4988701;28;96697;-73
2020/12/02 06:44:04;;;;;;;161.73;72.68;;;;;;;5.59;52.09;101698.88;4993830;28;98310;-73
2020/12/02 06:46:58;;;;;;;84.00;38.60;;;;;;;5.59;52.08;101695.34;4992366;28;97870;-73
2020/12/02 06:49:27;;;;;;;50.85;26.42;;;;;;;5.60;52.67;101695.47;4976215;28;96721;-73
2020/12/02 06:51:56;;;;;;;44.55;23.90;;;;;;;5.58;52.46;101699.69;4991047;28;97173;-73
2020/12/02 06:54:25;;;;;;;42.60;24.58;;;;;;;5.57;52.45;101696.91;4992666;28;98097;-73
2020/12/02 06:57:06;;;;;;;48.38;24.58;;;;;;;5.57;52.24;101691.69;4992247;28;98096;-73
2020/12/02 06:59:33;;;;;;;49.95;25.08;;;;;;;5.57;52.33;101690.03;4990545;28;96838;-73
2020/12/02 07:02:07;;;;;;;48.08;24.25;;;;;;;5.55;52.49;101688.97;4991848;28;97349;-73
2020/12/02 07:04:37;;;;;;;43.42;23.20;;;;;;;5.54;52.39;101694.97;4994091;28;99225;-73
2020/12/02 07:07:05;;;;;;;44.03;24.23;;;;;;;5.56;51.98;101695.09;5003078;28;98098;-73
2020/12/02 07:09:32;;;;;;;44.95;24.38;;;;;;;5.55;52.26;101694.19;4988887;28;97540;-73
2020/12/02 07:12:06;;;;;;;57.67;28.35;;;;;;;5.55;52.30;101695.84;4991601;28;97073;-74
2020/12/02 07:14:35;;;;;;;45.70;25.10;;;;;;;5.53;52.23;101700.94;4999826;28;99365;-74
2020/12/02 07:17:06;;;;;;;47.80;24.60;;;;;;;5.52;52.59;101703.41;5001217;28;99108;-74
2020/12/02 07:19:37;;;;;;;41.63;23.20;;;;;;;5.52;52.64;101706.03;5000195;28;97304;-73
2020/12/02 07:22:10;;;;;;;45.05;23.55;;;;;;;5.51;52.59;101701.63;4993296;28;96798;-73
2020/12/02 07:24:41;;;;;;;46.35;24.25;;;;;;;5.50;51.90;101703.28;4998383;28;98327;-73
2020/12/02 07:27:09;;;;;;;49.53;25.65;;;;;;;5.52;52.39;101706.03;4995531;28;98373;-73
2020/12/02 07:29:37;;;;;;;42.13;23.00;;;;;;;5.50;51.90;101708.50;4999173;28;97143;-75
2020/12/02 07:32:06;;;;;;;47.63;25.25;;;;;;;5.50;52.64;101703.28;4994752;28;97053;-76
2020/12/02 07:34:34;;;;;;;45.58;23.45;;;;;;;5.51;52.49;101701.63;5001526;28;99195;-75
2020/12/02 07:37:04;;;;;;;46.28;23.75;;;;;;;5.50;52.58;101704.97;5003029;28;97797;-76
2020/12/02 07:39:32;;;;;;;43.45;24.00;;;;;;;5.50;52.19;101705.91;4994870;28;97344;-76
2020/12/02 07:42:05;;;;;;;43.08;23.17;;;;;;;5.49;52.09;101704.06;4999369;28;98130;-76
2020/12/02 07:44:36;;;;;;;44.85;24.27;;;;;;;5.47;52.52;101705.66;4994984;28;97846;-75
2020/12/02 07:47:23;;;;;;;42.28;23.42;;;;;;;5.50;52.33;101707.59;4997482;28;98143;-76
2020/12/02 07:49:56;;;;;;;43.50;23.80;;;;;;;5.49;51.78;101701.44;5002717;28;97261;-69
2020/12/02 07:52:27;;;;;;;44.67;24.10;;;;;;;5.49;52.43;101704.06;4992102;28;98104;-69
2020/12/02 07:54:56;;;;;;;47.95;24.63;;;;;;;5.53;52.44;101698.34;4994222;28;97972;-68
2020/12/02 07:57:24;;;;;;;44.58;24.27;;;;;;;5.54;52.53;101694.97;4996847;28;97865;-70
2020/12/02 08:00:15;;;;;;;50.03;24.67;;;;;;;5.53;52.51;101693.13;4994478;28;98166;-68
2020/12/02 08:02:45;;;;;;;45.95;23.45;;;;;;;5.57;51.85;101694.31;4993745;28;97047;-67
2020/12/02 08:05:39;;;;;;;48.90;24.67;;;;;;;5.57;52.04;101689.09;5000719;28;98574;-73
2020/12/02 08:08:06;;;;;;;57.05;28.13;;;;;;;5.59;52.01;101690.16;4993680;28;99358;-73
2020/12/02 08:10:36;;;;;;;51.28;26.35;;;;;;;5.59;52.38;101687.53;4998677;28;97074;-74
2020/12/02 08:13:06;;;;;;;51.83;27.05;;;;;;;5.59;52.46;101683.25;4993670;28;97059;-74
2020/12/02 08:15:44;;;;;;;50.33;26.73;;;;;;;5.61;52.28;101686.91;4998586;28;99368;-74
2020/12/02 08:18:14;;;;;;;50.50;26.85;;;;;;;5.61;51.91;101697.34;5001354;28;97113;-73
2020/12/02 08:20:44;;;;;;;50.13;25.98;;;;;;;5.61;51.79;101692.13;5005729;28;96660;-74
2020/12/02 08:23:15;;;;;;;52.60;24.85;;;;;;;5.63;52.40;101682.75;5005932;28;97310;-74
2020/12/02 08:25:55;;;;;;;53.60;27.45;;;;;;;5.63;52.35;101680.13;5003350;28;97853;-74
2020/12/02 08:28:26;;;;;;;45.78;25.98;;;;;;;5.67;52.13;101684.84;4999319;28;98455;-74
2020/12/02 08:31:03;;;;;;;52.33;24.65;;;;;;;5.68;52.34;101683.13;4999929;28;97160;-74
2020/12/02 08:34:08;;;;;;;50.60;26.40;;;;;;;5.68;51.61;101683.13;4996349;28;96742;-74
2020/12/02 08:36:37;;;;;;;51.15;26.58;;;;;;;5.71;51.62;101681.69;5026521;27;97917;-74
2020/12/02 08:39:05;;;;;;;46.25;25.58;;;;;;;5.72;51.84;101678.31;4999400;28;98996;-74
2020/12/02 08:41:42;;;;;;;49.20;25.65;;;;;;;5.72;51.98;101677.41;4992173;28;97535;-74
2020/12/02 08:44:11;;;;;;;50.58;25.65;;;;;;;5.74;51.54;101676.75;5002137;28;96981;-74
2020/12/02 08:46:47;;;;;;;50.95;26.35;;;;;;;5.73;51.98;101669.72;4990606;28;98153;-73
2020/12/02 08:49:14;;;;;;;55.97;28.27;;;;;;;5.77;52.18;101677.00;4998028;28;98331;-74
2020/12/02 08:51:44;;;;;;;49.22;25.23;;;;;;;5.80;51.77;101679.88;4996181;28;97236;-74
2020/12/02 08:54:13;;;;;;;49.10;25.70;;;;;;;5.80;52.27;101674.66;4994081;28;97219;-74
2020/12/02 08:57:18;;;;;;;50.92;25.13;;;;;;;5.84;51.76;101675.88;4997904;28;98439;-73
2020/12/02 09:00:05;;;;;;;51.78;26.13;;;;;;;5.87;51.80;101678.75;5001318;28;98023;-74
2020/12/02 09:02:32;;;;;;;48.80;25.48;;;;;;;5.92;51.34;101674.84;4998433;28;96728;-74
2020/12/02 09:05:00;;;;;;;51.78;27.92;;;;;;;5.98;51.18;101673.69;5001739;28;97008;-73
2020/12/02 09:07:27;;;;;;;47.72;27.17;;;;;;;5.99;51.72;101670.28;4999542;28;97795;-72
2020/12/02 09:09:55;;;;;;;45.65;26.50;;;;;;;6.04;51.93;101663.75;5009054;28;99366;-74
2020/12/02 09:12:24;;;;;;;52.38;27.52;;;;;;;6.08;51.29;101659.72;5002549;28;96984;-73
2020/12/02 09:14:52;;;;;;;53.05;28.20;;;;;;;6.12;50.97;101649.69;5003034;28;96893;-74
2020/12/02 09:17:19;;;;;;;52.60;26.92;;;;;;;6.17;51.49;101643.94;4998362;28;99911;-73
2020/12/02 09:19:47;;;;;;;57.40;30.33;;;;;;;6.21;51.07;101646.91;5006575;28;98942;-74
2020/12/02 09:22:14;;;;;;;55.88;27.95;;;;;;;6.23;51.29;101641.81;5003472;28;97411;-74
2020/12/02 09:24:43;;;;;;;47.42;27.65;;;;;;;6.27;51.53;101641.31;4999340;28;97165;-74
2020/12/02 09:27:11;;;;;;;55.67;30.02;;;;;;;6.29;50.75;101629.31;4995109;28;99012;-74
2020/12/02 09:29:39;;;;;;;51.92;28.10;;;;;;;6.33;51.11;101626.19;5002234;28;99611;-74
2020/12/02 09:32:07;;;;;;;52.78;27.63;;;;;;;6.38;51.01;101624.84;5004928;28;97311;-74
2020/12/02 09:34:35;;;;;;;57.08;28.77;;;;;;;6.42;51.16;101625.25;5002153;28;96740;-74
2020/12/02 09:37:06;;;;;;;53.50;26.98;;;;;;;6.45;51.24;101617.66;4998410;28;98287;-74
2020/12/02 09:39:34;;;;;;;53.45;26.73;;;;;;;6.48;50.78;101623.13;5012684;27;97966;-73
2020/12/02 09:42:10;;;;;;;51.95;28.30;;;;;;;6.51;50.76;101622.47;4992958;28;98105;-73
2020/12/02 09:44:41;;;;;;;58.78;27.83;;;;;;;6.54;50.99;101618.41;5001013;28;97736;-76
2020/12/02 09:47:10;;;;;;;56.95;30.38;;;;;;;6.59;50.31;101618.78;5002525;28;98490;-76
2020/12/02 09:49:39;;;;;;;59.25;30.65;;;;;;;6.61;50.46;101615.50;5000128;28;99484;-73
2020/12/02 09:52:32;;;;;;;56.25;29.35;;;;;;;6.61;50.85;101607.69;4997839;28;97319;-73
2020/12/02 09:55:00;;;;;;;57.50;29.00;;;;;;;6.67;50.27;101602.06;4996850;28;97202;-73
2020/12/02 09:57:30;;;;;;;59.25;28.40;;;;;;;6.70;50.17;101602.28;5000426;28;99153;-73
2020/12/02 10:00:00;;;;;;;55.40;28.83;;;;;;;6.71;50.66;101605.06;4996110;28;99079;-75
2020/12/02 10:02:48;;;;;;;55.28;28.20;;;;;;;6.73;50.36;101600.84;4998282;28;96766;-73
2020/12/02 10:05:25;;;;;;;58.00;28.48;;;;;;;6.77;50.34;101586.38;4992057;28;96767;-75
2020/12/02 10:08:02;;;;;;;54.42;27.77;;;;;;;6.81;50.44;101593.63;5018188;27;97832;-76
2020/12/02 10:10:41;;;;;;;51.53;27.40;;;;;;;6.85;50.66;101590.47;4996059;28;98174;-73
2020/12/02 10:13:32;;;;;;;54.75;27.80;;;;;;;6.86;49.99;101579.25;4997469;28;96970;-74
2020/12/02 10:16:12;;;;;;;51.75;27.40;;;;;;;6.89;49.94;101571.66;5001387;28;96964;-74
2020/12/02 10:19:20;;;;;;;54.63;30.15;;;;;;;6.92;49.85;101566.69;4994172;28;97898;-74
2020/12/02 10:22:01;;;;;;;52.15;27.95;;;;;;;6.94;50.05;101558.19;4988631;28;98250;-75
2020/12/02 10:24:43;;;;;;;55.17;29.20;;;;;;;6.99;49.74;101559.47;4996051;28;96819;-75
2020/12/02 10:27:22;;;;;;;51.20;27.20;;;;;;;7.02;49.81;101544.06;4995202;28;97234;-75
2020/12/02 10:30:01;;;;;;;57.17;26.98;;;;;;;7.07;50.04;101544.38;4993884;28;99499;-73
2020/12/02 10:32:54;;;;;;;57.10;29.05;;;;;;;7.08;49.84;101525.31;4998961;28;99233;-74
2020/12/02 10:35:22;;;;;;;50.30;25.65;;;;;;;7.16;49.77;101532.06;4967113;28;96967;-75
2020/12/02 10:37:56;;;;;;;60.03;30.10;;;;;;;7.19;49.97;101521.81;5001557;28;97133;-74
2020/12/02 10:40:23;;;;;;;53.83;28.75;;;;;;;7.25;49.68;101522.31;5000825;28;98252;-75
2020/12/02 10:42:56;;;;;;;52.13;27.30;;;;;;;7.28;49.89;101519.94;4997281;28;99138;-74
2020/12/02 10:45:24;;;;;;;49.28;28.83;;;;;;;7.31;49.83;101514.97;5004288;28;97053;-74
2020/12/02 10:48:18;;;;;;;53.35;27.70;;;;;;;7.33;49.69;101516.00;4990820;28;97281;-75
2020/12/02 10:50:47;;;;;;;74.63;35.67;;;;;;;7.40;49.24;101502.59;4991012;28;97988;-76
2020/12/02 10:53:18;;;;;;;131.35;56.28;;;;;;;7.42;49.36;101501.03;4992746;28;98133;-75
2020/12/02 10:55:45;;;;;;;63.75;34.78;;;;;;;7.46;49.63;101492.63;4996802;28;96577;-74
2020/12/02 10:58:18;;;;;;;54.58;28.02;;;;;;;7.47;49.14;101486.59;5000839;28;97493;-74
2020/12/02 11:00:51;;;;;;;55.00;29.02;;;;;;;7.49;49.50;101477.16;4991025;28;99226;-73
2020/12/02 11:03:40;;;;;;;50.25;26.85;;;;;;;7.52;49.02;101487.84;5002098;28;98288;-73
2020/12/02 11:06:15;;;;;;;56.60;27.92;;;;;;;7.55;48.84;101485.50;5007665;28;96949;-76
2020/12/02 11:09:16;;;;;;;58.60;29.73;;;;;;;7.56;49.15;101482.06;4996887;28;97598;-76
2020/12/02 11:12:08;;;;;;;54.15;27.15;;;;;;;7.55;48.99;101475.03;4997523;28;97896;-73
2020/12/02 11:15:02;;;;;;;51.25;26.88;;;;;;;7.56;49.07;101468.06;4999501;28;99410;-73
2020/12/02 11:17:39;;;;;;;54.90;26.85;;;;;;;7.60;49.09;101471.06;4994633;28;97212;-73
2020/12/02 11:20:09;;;;;;;52.58;28.75;;;;;;;7.63;48.92;101458.19;5003410;28;96990;-74
2020/12/02 11:22:48;;;;;;;57.85;28.85;;;;;;;7.64;49.08;101449.59;4999652;28;100748;-73
2020/12/02 11:25:17;;;;;;;51.58;27.63;;;;;;;7.66;48.90;101445.38;5001798;28;98111;-74
2020/12/02 11:27:46;;;;;;;52.95;28.92;;;;;;;7.67;48.71;101436.72;4997460;28;97112;-72
2020/12/02 11:30:17;;;;;;;54.22;28.73;;;;;;;7.68;49.08;101432.41;4999821;28;97340;-75
2020/12/02 11:33:02;;;;;;;54.47;29.23;;;;;;;7.68;48.74;101427.19;5003230;28;99214;-73
2020/12/02 11:36:03;;;;;;;54.38;28.70;;;;;;;7.70;48.75;101426.47;5000203;28;99102;-76
2020/12/02 11:38:42;;;;;;;52.55;26.30;;;;;;;7.75;48.82;101422.53;4997331;28;97796;-75
2020/12/02 11:41:17;;;;;;;52.17;27.67;;;;;;;7.76;49.02;101418.19;4993862;28;97154;-76
2020/12/02 11:43:49;;;;;;;49.80;27.48;;;;;;;7.79;48.80;101423.66;4980787;28;99978;-75